WAT2918 SAEZ-SUMU
Flight info
| Callsign | WAT2918 |
|---|---|
| Flight time | 0h 28m |
| Altitude | 15000 |
| Route | PTA6B DORVO A305 TOKAM |
| Aircraft | A320/M-SDE3FGHIRWY/LB1 |
Departure
| Time | 2026-04-24 12:10 |
|---|---|
| Airport | Ezeiza International Airport - Ministro Pistarini (SAEZ) |
Arrival
| Time | 2026-04-24 12:38 |
|---|---|
| Airport | Carrasco General Cesáreo L. Berisso International Airport (SUMU) |
| Time | Latitude | Longitude | Altitude | Speed | Heading |
|---|---|---|---|---|---|
| 2026-04-24 11:55 | -34.81659 | -58.54389 | 74 ft | 0 kts | 29° |
| 2026-04-24 12:01 | -34.81666 | -58.54394 | 73 ft | 2 kts | 28° |
| 2026-04-24 12:01 | -34.81679 | -58.54402 | 73 ft | 2 kts | 29° |
| 2026-04-24 12:01 | -34.81690 | -58.54410 | 73 ft | 0 kts | 28° |
| 2026-04-24 12:02 | -34.81701 | -58.54416 | 72 ft | 2 kts | 13° |
| 2026-04-24 12:02 | -34.81716 | -58.54418 | 72 ft | 2 kts | 356° |
| 2026-04-24 12:02 | -34.81731 | -58.54414 | 72 ft | 2 kts | 338° |
| 2026-04-24 12:02 | -34.81744 | -58.54405 | 72 ft | 2 kts | 320° |
| 2026-04-24 12:03 | -34.81754 | -58.54391 | 72 ft | 2 kts | 301° |
| 2026-04-24 12:03 | -34.81759 | -58.54380 | 72 ft | 0 kts | 289° |
| 2026-04-24 12:03 | -34.81761 | -58.54372 | 72 ft | 0 kts | 286° |
| 2026-04-24 12:05 | -34.81759 | -58.54378 | 72 ft | 2 kts | 286° |
| 2026-04-24 12:06 | -34.81755 | -58.54409 | 71 ft | 5 kts | 278° |
| 2026-04-24 12:06 | -34.81751 | -58.54462 | 71 ft | 6 kts | 271° |
| 2026-04-24 12:06 | -34.81755 | -58.54525 | 71 ft | 8 kts | 265° |
| 2026-04-24 12:06 | -34.81765 | -58.54599 | 71 ft | 10 kts | 261° |
| 2026-04-24 12:07 | -34.81777 | -58.54699 | 68 ft | 13 kts | 264° |
| 2026-04-24 12:07 | -34.81770 | -58.54817 | 68 ft | 14 kts | 283° |
| 2026-04-24 12:07 | -34.81748 | -58.54937 | 68 ft | 14 kts | 282° |
| 2026-04-24 12:07 | -34.81725 | -58.55064 | 68 ft | 15 kts | 283° |
| 2026-04-24 12:08 | -34.81702 | -58.55193 | 67 ft | 16 kts | 277° |
| 2026-04-24 12:08 | -34.81722 | -58.55325 | 65 ft | 15 kts | 220° |
| 2026-04-24 12:08 | -34.81811 | -58.55329 | 65 ft | 13 kts | 163° |
| 2026-04-24 12:08 | -34.81897 | -58.55278 | 65 ft | 14 kts | 140° |
| 2026-04-24 12:09 | -34.81929 | -58.55211 | 65 ft | 0 kts | 102° |
| 2026-04-24 12:09 | -34.81946 | -58.55113 | 66 ft | 46 kts | 103° |
| 2026-04-24 12:09 | -34.82078 | -58.54390 | 71 ft | 125 kts | 102° |
| 2026-04-24 12:09 | -34.82304 | -58.53127 | 327 ft | 166 kts | 102° |
| 2026-04-24 12:10 | -34.82544 | -58.51775 | 1161 ft | 167 kts | 100° |
| 2026-04-24 12:10 | -34.82753 | -58.50424 | 2040 ft | 168 kts | 91° |
| 2026-04-24 12:10 | -34.82676 | -58.48982 | 2610 ft | 178 kts | 75° |
| 2026-04-24 12:11 | -34.82132 | -58.45758 | 3668 ft | 212 kts | 78° |
| 2026-04-24 12:11 | -34.81899 | -58.43926 | 4144 ft | 234 kts | 79° |
| 2026-04-24 12:11 | -34.81664 | -58.41919 | 4905 ft | 243 kts | 80° |
| 2026-04-24 12:11 | -34.81435 | -58.39868 | 5837 ft | 245 kts | 80° |
| 2026-04-24 12:12 | -34.81213 | -58.37841 | 6709 ft | 248 kts | 80° |
| 2026-04-24 12:12 | -34.80907 | -58.35034 | 7847 ft | 253 kts | 80° |
| 2026-04-24 12:12 | -34.80754 | -58.33618 | 8393 ft | 256 kts | 79° |
| 2026-04-24 12:12 | -34.80525 | -58.31479 | 9193 ft | 260 kts | 79° |
| 2026-04-24 12:13 | -34.80287 | -58.29277 | 9859 ft | 269 kts | 79° |
| 2026-04-24 12:13 | -34.80033 | -58.26971 | 10340 ft | 286 kts | 79° |
| 2026-04-24 12:13 | -34.79760 | -58.24487 | 10764 ft | 304 kts | 80° |
| 2026-04-24 12:13 | -34.79472 | -58.21874 | 11190 ft | 322 kts | 80° |
| 2026-04-24 12:14 | -34.79169 | -58.19106 | 11698 ft | 338 kts | 81° |
| 2026-04-24 12:14 | -34.78858 | -58.16256 | 12345 ft | 345 kts | 81° |
| 2026-04-24 12:14 | -34.78537 | -58.13314 | 13100 ft | 351 kts | 81° |
| 2026-04-24 12:14 | -34.78212 | -58.10341 | 13767 ft | 358 kts | 81° |
| 2026-04-24 12:15 | -34.77880 | -58.07317 | 14425 ft | 365 kts | 81° |
| 2026-04-24 12:15 | -34.77544 | -58.04259 | 14929 ft | 369 kts | 81° |
| 2026-04-24 12:15 | -34.77197 | -58.01127 | 15138 ft | 370 kts | 81° |
| 2026-04-24 12:15 | -34.76852 | -57.98013 | 15148 ft | 370 kts | 81° |
| 2026-04-24 12:16 | -34.76505 | -57.94894 | 15157 ft | 370 kts | 81° |
| 2026-04-24 12:16 | -34.76160 | -57.91793 | 15175 ft | 369 kts | 81° |
| 2026-04-24 12:16 | -34.75814 | -57.88699 | 15131 ft | 369 kts | 81° |
| 2026-04-24 12:16 | -34.75474 | -57.85652 | 15135 ft | 369 kts | 81° |
| 2026-04-24 12:17 | -34.75126 | -57.82552 | 15155 ft | 369 kts | 81° |
| 2026-04-24 12:17 | -34.74777 | -57.79454 | 15165 ft | 369 kts | 81° |
| 2026-04-24 12:17 | -34.74426 | -57.76352 | 15150 ft | 369 kts | 81° |
| 2026-04-24 12:17 | -34.74076 | -57.73259 | 15168 ft | 369 kts | 81° |
| 2026-04-24 12:18 | -34.73740 | -57.70291 | 15134 ft | 369 kts | 81° |
| 2026-04-24 12:18 | -34.73387 | -57.67180 | 15143 ft | 369 kts | 81° |
| 2026-04-24 12:18 | -34.73036 | -57.64099 | 15144 ft | 370 kts | 81° |
| 2026-04-24 12:18 | -34.72681 | -57.60992 | 15146 ft | 369 kts | 81° |
| 2026-04-24 12:19 | -34.72339 | -57.58006 | 15144 ft | 369 kts | 81° |
| 2026-04-24 12:19 | -34.71991 | -57.54942 | 15143 ft | 369 kts | 82° |
| 2026-04-24 12:19 | -34.71792 | -57.51804 | 15147 ft | 370 kts | 88° |
| 2026-04-24 12:19 | -34.71848 | -57.48789 | 15149 ft | 370 kts | 94° |
| 2026-04-24 12:20 | -34.72086 | -57.45676 | 15153 ft | 370 kts | 95° |
| 2026-04-24 12:20 | -34.72360 | -57.42548 | 15153 ft | 370 kts | 95° |
| 2026-04-24 12:20 | -34.72632 | -57.39465 | 15154 ft | 370 kts | 95° |
| 2026-04-24 12:20 | -34.72902 | -57.36344 | 15160 ft | 370 kts | 95° |
| 2026-04-24 12:21 | -34.73167 | -57.33239 | 15161 ft | 370 kts | 95° |
| 2026-04-24 12:21 | -34.73432 | -57.30078 | 15159 ft | 371 kts | 95° |
| 2026-04-24 12:21 | -34.73687 | -57.27004 | 15156 ft | 370 kts | 95° |
| 2026-04-24 12:21 | -34.73947 | -57.23857 | 14906 ft | 369 kts | 95° |
| 2026-04-24 12:22 | -34.74202 | -57.20768 | 14651 ft | 367 kts | 95° |
| 2026-04-24 12:22 | -34.74455 | -57.17679 | 14369 ft | 365 kts | 95° |
| 2026-04-24 12:22 | -34.74708 | -57.14599 | 14029 ft | 363 kts | 95° |
| 2026-04-24 12:22 | -34.74956 | -57.11556 | 13662 ft | 360 kts | 95° |
| 2026-04-24 12:23 | -34.75203 | -57.08519 | 13290 ft | 358 kts | 95° |
| 2026-04-24 12:23 | -34.75444 | -57.05554 | 12913 ft | 355 kts | 94° |
| 2026-04-24 12:23 | -34.75679 | -57.02646 | 12541 ft | 353 kts | 94° |
| 2026-04-24 12:23 | -34.75914 | -56.99728 | 12169 ft | 350 kts | 94° |
| 2026-04-24 12:24 | -34.76152 | -56.96767 | 11836 ft | 346 kts | 94° |
| 2026-04-24 12:24 | -34.76382 | -56.93899 | 11551 ft | 340 kts | 94° |
| 2026-04-24 12:24 | -34.76611 | -56.91038 | 11228 ft | 338 kts | 94° |
| 2026-04-24 12:24 | -34.76834 | -56.88225 | 10874 ft | 336 kts | 94° |
| 2026-04-24 12:25 | -34.77063 | -56.85356 | 10501 ft | 333 kts | 94° |
| 2026-04-24 12:25 | -34.77282 | -56.82594 | 10327 ft | 322 kts | 94° |
| 2026-04-24 12:25 | -34.77494 | -56.79927 | 10258 ft | 306 kts | 94° |
| 2026-04-24 12:25 | -34.77693 | -56.77391 | 10185 ft | 291 kts | 94° |
| 2026-04-24 12:26 | -34.77884 | -56.74965 | 9949 ft | 285 kts | 94° |
| 2026-04-24 12:26 | -34.78073 | -56.72593 | 9641 ft | 283 kts | 95° |
| 2026-04-24 12:26 | -34.78384 | -56.70228 | 9336 ft | 282 kts | 100° |
| 2026-04-24 12:26 | -34.78788 | -56.67933 | 9028 ft | 275 kts | 101° |
| 2026-04-24 12:27 | -34.79198 | -56.65676 | 8744 ft | 273 kts | 101° |
| 2026-04-24 12:27 | -34.79609 | -56.63412 | 8437 ft | 272 kts | 101° |
| 2026-04-24 12:27 | -34.80011 | -56.61188 | 8139 ft | 270 kts | 101° |
| 2026-04-24 12:27 | -34.80412 | -56.58963 | 7847 ft | 265 kts | 101° |
| 2026-04-24 12:28 | -34.80801 | -56.56794 | 7569 ft | 264 kts | 101° |
| 2026-04-24 12:28 | -34.81187 | -56.54637 | 7268 ft | 263 kts | 101° |
| 2026-04-24 12:28 | -34.81575 | -56.52471 | 6967 ft | 261 kts | 100° |
| 2026-04-24 12:28 | -34.81965 | -56.50296 | 6675 ft | 260 kts | 100° |
| 2026-04-24 12:29 | -34.82346 | -56.48162 | 6389 ft | 258 kts | 100° |
| 2026-04-24 12:29 | -34.82714 | -56.46093 | 6103 ft | 257 kts | 100° |
| 2026-04-24 12:29 | -34.83089 | -56.43975 | 5825 ft | 256 kts | 100° |
| 2026-04-24 12:29 | -34.83466 | -56.41856 | 5556 ft | 256 kts | 100° |
| 2026-04-24 12:30 | -34.83838 | -56.39759 | 5256 ft | 255 kts | 100° |
| 2026-04-24 12:30 | -34.84215 | -56.37637 | 4964 ft | 253 kts | 100° |
| 2026-04-24 12:30 | -34.84581 | -56.35570 | 4684 ft | 252 kts | 100° |
| 2026-04-24 12:30 | -34.84947 | -56.33492 | 4407 ft | 250 kts | 100° |
| 2026-04-24 12:31 | -34.85309 | -56.31433 | 4133 ft | 248 kts | 100° |
| 2026-04-24 12:31 | -34.85671 | -56.29385 | 3846 ft | 245 kts | 100° |
| 2026-04-24 12:31 | -34.86222 | -56.27423 | 3561 ft | 246 kts | 120° |
| 2026-04-24 12:31 | -34.87373 | -56.25895 | 3288 ft | 247 kts | 140° |
| 2026-04-24 12:32 | -34.88747 | -56.24674 | 3053 ft | 244 kts | 143° |
| 2026-04-24 12:32 | -34.90110 | -56.23507 | 2990 ft | 231 kts | 143° |
| 2026-04-24 12:32 | -34.91377 | -56.22412 | 3040 ft | 211 kts | 142° |
| 2026-04-24 12:32 | -34.92520 | -56.21398 | 3017 ft | 198 kts | 139° |
| 2026-04-24 12:33 | -34.93253 | -56.20121 | 2975 ft | 172 kts | 103° |
| 2026-04-24 12:33 | -34.93272 | -56.18781 | 2939 ft | 150 kts | 71° |
| 2026-04-24 12:33 | -34.92850 | -56.17686 | 2842 ft | 139 kts | 52° |
| 2026-04-24 12:33 | -34.92276 | -56.16774 | 2619 ft | 133 kts | 48° |
| 2026-04-24 12:34 | -34.91684 | -56.15892 | 2446 ft | 133 kts | 49° |
| 2026-04-24 12:34 | -34.91111 | -56.15005 | 2272 ft | 133 kts | 50° |
| 2026-04-24 12:34 | -34.90543 | -56.14095 | 2093 ft | 133 kts | 51° |
| 2026-04-24 12:34 | -34.89985 | -56.13180 | 1918 ft | 133 kts | 51° |
| 2026-04-24 12:35 | -34.89439 | -56.12278 | 1742 ft | 132 kts | 51° |
| 2026-04-24 12:35 | -34.88892 | -56.11372 | 1567 ft | 132 kts | 51° |
| 2026-04-24 12:35 | -34.88345 | -56.10469 | 1392 ft | 131 kts | 51° |
| 2026-04-24 12:35 | -34.87801 | -56.09569 | 1220 ft | 131 kts | 51° |
| 2026-04-24 12:36 | -34.87256 | -56.08672 | 1043 ft | 130 kts | 51° |
| 2026-04-24 12:36 | -34.86715 | -56.07781 | 871 ft | 131 kts | 52° |
| 2026-04-24 12:36 | -34.86177 | -56.06895 | 698 ft | 131 kts | 52° |
| 2026-04-24 12:36 | -34.85633 | -56.06000 | 525 ft | 131 kts | 52° |
| 2026-04-24 12:37 | -34.85091 | -56.05108 | 350 ft | 131 kts | 52° |
| 2026-04-24 12:37 | -34.84550 | -56.04218 | 169 ft | 130 kts | 52° |
| 2026-04-24 12:37 | -34.83996 | -56.03334 | 62 ft | 127 kts | 51° |
| 2026-04-24 12:37 | -34.83584 | -56.02668 | 73 ft | 60 kts | 53° |
| 2026-04-24 12:38 | -34.83362 | -56.02300 | 78 ft | 39 kts | 51° |
| 2026-04-24 12:38 | -34.83235 | -56.02091 | 79 ft | 28 kts | 54° |
| 2026-04-24 12:38 | -34.83226 | -56.01967 | 82 ft | 10 kts | 131° |
| 2026-04-24 12:39 | -34.83413 | -56.01794 | 83 ft | 13 kts | 143° |
| 2026-04-24 12:39 | -34.83494 | -56.01770 | 81 ft | 11 kts | 214° |
| 2026-04-24 12:39 | -34.83545 | -56.01757 | 79 ft | 8 kts | 144° |
| 2026-04-24 12:40 | -34.83590 | -56.01718 | 77 ft | 2 kts | 143° |
| 2026-04-24 12:40 | -34.83591 | -56.01716 | 77 ft | 0 kts | 143° |